Time;durP1;ratioP1;P1;durP2;ratioP2;P2;SDS_P1;SDS_P2;PMS_P1;PMS_P2;Temp;Humidity;BMP_temperature;BMP_pressure;BME280_temperature;BME280_humidity;BME280_pressure;Samples;Min_cycle;Max_cycle;Signal;HPM_P1;HPM_P2
2022/06/11 00:01:28;;;;;;;6.90;4.13;;;;;;;13.24;77.58;101187.03;5024500;28;20065;-72
2022/06/11 00:03:58;;;;;;;7.28;4.80;;;;;;;13.22;77.89;101188.81;5028102;28;20096;-71
2022/06/11 00:06:26;;;;;;;9.77;5.03;;;;;;;13.19;78.27;101186.19;5022453;28;20037;-72
2022/06/11 00:08:51;;;;;;;10.20;5.18;;;;;;;13.19;78.20;101187.06;5020759;28;20034;-71
2022/06/11 00:11:17;;;;;;;7.35;4.70;;;;;;;13.21;78.67;101187.06;5024020;28;20506;-72
2022/06/11 00:13:42;;;;;;;7.18;4.13;;;;;;;13.19;78.22;101187.06;5022512;28;20089;-72
2022/06/11 00:16:10;;;;;;;9.35;4.60;;;;;;;13.16;78.05;101193.25;5023432;28;20026;-71
2022/06/11 00:18:41;;;;;;;8.57;4.90;;;;;;;13.16;78.14;101184.44;5023713;28;20480;-71
2022/06/11 00:21:08;;;;;;;9.98;5.65;;;;;;;13.16;78.34;101185.28;5020722;28;20048;-71
2022/06/11 00:23:34;;;;;;;8.32;5.20;;;;;;;13.18;78.46;101190.59;5016009;28;20088;-72
2022/06/11 00:26:02;;;;;;;7.47;4.97;;;;;;;13.19;78.25;101197.66;5023776;28;20030;-71
2022/06/11 00:28:27;;;;;;;8.40;4.88;;;;;;;13.22;78.65;101188.81;5022382;28;20030;-72
2022/06/11 00:30:52;;;;;;;9.27;5.63;;;;;;;13.23;77.97;101194.09;5023680;28;20575;-71
2022/06/11 00:33:18;;;;;;;7.10;4.97;;;;;;;13.23;78.50;101188.81;5020973;28;20448;-72
2022/06/11 00:35:43;;;;;;;8.02;5.25;;;;;;;13.20;78.12;101188.78;5024502;28;20094;-71
2022/06/11 00:38:09;;;;;;;9.25;5.80;;;;;;;13.14;78.46;101202.97;5021299;28;20033;-72
2022/06/11 00:40:39;;;;;;;10.35;5.13;;;;;;;13.11;79.05;101194.16;5023160;28;20397;-71
2022/06/11 00:43:06;;;;;;;8.48;5.15;;;;;;;13.04;79.65;101193.31;5023209;28;20033;-71
2022/06/11 00:45:46;;;;;;;9.93;5.85;;;;;;;13.00;78.42;101188.94;5021158;28;20390;-71
2022/06/11 00:48:24;;;;;;;8.02;5.15;;;;;;;13.03;79.44;101182.75;5022298;28;20044;-71
2022/06/11 00:50:56;;;;;;;7.75;4.68;;;;;;;13.04;78.82;101188.00;5000195;28;20393;-70
2022/06/11 00:53:37;;;;;;;8.65;5.00;;;;;;;12.97;78.99;101185.41;5020087;28;20064;-71
2022/06/11 00:56:12;;;;;;;7.65;5.43;;;;;;;12.86;79.94;101183.72;5018709;28;20038;-71
2022/06/11 00:58:40;;;;;;;7.28;5.07;;;;;;;12.91;80.20;101176.59;5019508;28;20528;-71
2022/06/11 01:01:06;;;;;;;9.45;5.60;;;;;;;12.93;79.77;101180.13;5023287;28;20468;-72
2022/06/11 01:03:42;;;;;;;8.18;5.43;;;;;;;12.96;79.80;101173.06;5021271;28;20116;-72
2022/06/11 01:06:51;;;;;;;9.23;6.35;;;;;;;12.99;79.11;101173.91;5021435;28;20048;-72
2022/06/11 01:09:46;;;;;;;7.95;5.25;;;;;;;12.90;80.40;101171.31;5021538;28;20040;-72
2022/06/11 01:12:32;;;;;;;7.20;4.78;;;;;;;12.90;79.90;101173.97;5020621;28;20396;-72
2022/06/11 01:15:14;;;;;;;7.82;6.30;;;;;;;12.85;80.54;101173.13;5020035;28;20481;-72
2022/06/11 01:17:51;;;;;;;10.63;5.35;;;;;;;12.83;80.58;101172.25;5017757;28;20102;-71
2022/06/11 01:20:29;;;;;;;9.00;5.68;;;;;;;12.86;79.94;101172.22;5020831;28;20037;-72
2022/06/11 01:23:26;;;;;;;11.15;6.03;;;;;;;12.86;80.70;101169.56;5014873;28;20046;-71
2022/06/11 01:26:17;;;;;;;9.35;6.13;;;;;;;12.83;80.44;101174.91;5021124;28;20516;-71
2022/06/11 01:28:47;;;;;;;11.45;7.18;;;;;;;12.82;79.78;101170.50;5021408;28;20041;-71
2022/06/11 01:31:27;;;;;;;10.25;6.20;;;;;;;12.80;79.74;101169.63;5019610;28;20053;-71
2022/06/11 01:34:23;;;;;;;8.93;5.72;;;;;;;12.77;80.56;101173.16;5021006;28;20045;-71
2022/06/11 01:36:54;;;;;;;12.05;7.47;;;;;;;12.74;80.87;101173.19;5019373;28;20038;-71
2022/06/11 01:39:28;;;;;;;9.18;5.90;;;;;;;12.67;79.83;101174.97;5022127;28;20435;-71
2022/06/11 01:42:16;;;;;;;10.18;6.55;;;;;;;12.62;81.13;101163.50;5022048;28;20029;-71
2022/06/11 01:44:44;;;;;;;12.68;7.32;;;;;;;12.61;81.29;101164.41;5021065;28;20048;-71
2022/06/11 01:47:13;;;;;;;13.60;6.60;;;;;;;12.64;81.83;101169.69;5019873;28;20037;-71
2022/06/11 01:49:46;;;;;;;11.20;7.18;;;;;;;12.62;81.67;101163.50;5022416;28;20034;-71
2022/06/11 01:52:41;;;;;;;9.05;6.50;;;;;;;12.56;81.05;101166.19;5018761;28;20382;-72
2022/06/11 01:55:06;;;;;;;9.48;5.82;;;;;;;12.47;81.87;101163.56;5021793;28;20033;-72
2022/06/11 01:57:41;;;;;;;10.98;6.72;;;;;;;12.39;82.62;101171.56;5019636;28;20042;-72
2022/06/11 02:00:18;;;;;;;7.93;5.95;;;;;;;12.42;82.21;101171.56;5021496;28;20025;-72
2022/06/11 02:02:59;;;;;;;7.30;5.82;;;;;;;12.41;81.85;101172.41;5014761;28;20492;-72
2022/06/11 02:05:52;;;;;;;10.32;5.63;;;;;;;12.43;81.75;101178.59;5022504;28;20041;-72
2022/06/11 02:08:52;;;;;;;12.95;8.20;;;;;;;12.40;81.17;101172.44;5021984;28;20492;-72
2022/06/11 02:11:31;;;;;;;8.88;6.38;;;;;;;12.28;82.27;101174.22;5016703;28;20072;-72
2022/06/11 02:14:06;;;;;;;7.95;5.85;;;;;;;12.22;82.46;101173.38;5019839;28;20133;-72
2022/06/11 02:16:47;;;;;;;7.82;5.75;;;;;;;12.15;82.47;101172.50;5018264;28;20038;-72
2022/06/11 02:19:18;;;;;;;8.30;5.40;;;;;;;12.12;82.49;101172.50;5015392;28;20070;-72
2022/06/11 02:22:07;;;;;;;8.45;5.57;;;;;;;12.13;82.64;101174.28;5020924;28;20408;-72
2022/06/11 02:24:41;;;;;;;7.85;4.90;;;;;;;12.16;82.17;101176.03;5018436;28;20088;-71
2022/06/11 02:27:12;;;;;;;7.70;5.55;;;;;;;12.15;82.53;101177.78;5019577;28;20059;-71
2022/06/11 02:29:39;;;;;;;9.13;5.57;;;;;;;12.14;81.90;101175.16;5017125;28;20037;-71
2022/06/11 02:32:11;;;;;;;9.02;6.20;;;;;;;12.14;81.88;101177.81;5020689;28;20042;-72
2022/06/11 02:34:43;;;;;;;7.80;4.95;;;;;;;12.10;81.56;101179.56;5013778;28;21002;-71
2022/06/11 02:37:24;;;;;;;6.75;4.50;;;;;;;12.05;82.40;101183.97;5014804;28;20249;-72
2022/06/11 02:39:53;;;;;;;8.43;4.90;;;;;;;12.01;82.94;101182.25;5019095;28;20099;-72
2022/06/11 02:42:21;;;;;;;9.23;5.50;;;;;;;12.02;82.16;101183.97;5020848;28;20033;-72
2022/06/11 02:44:47;;;;;;;5.97;4.30;;;;;;;11.91;82.34;101191.94;5020600;28;20034;-72
2022/06/11 02:47:14;;;;;;;7.72;5.78;;;;;;;11.91;82.61;101196.34;5017096;28;20861;-71
2022/06/11 02:49:40;;;;;;;7.07;4.47;;;;;;;11.84;83.20;101193.69;5019210;28;20172;-72
2022/06/11 02:52:10;;;;;;;8.65;5.57;;;;;;;11.87;82.94;101199.88;5022011;28;20092;-71
2022/06/11 02:54:37;;;;;;;8.15;5.53;;;;;;;11.90;82.97;101198.13;5020110;28;20037;-71
2022/06/11 02:57:04;;;;;;;9.75;5.90;;;;;;;11.89;83.17;101195.47;5021268;28;20038;-72
2022/06/11 02:59:30;;;;;;;7.00;5.18;;;;;;;11.94;83.18;101205.16;5021401;28;20145;-72
2022/06/11 03:01:56;;;;;;;6.15;4.32;;;;;;;11.95;83.09;101200.78;5017776;28;20112;-72
2022/06/11 03:04:24;;;;;;;8.40;4.70;;;;;;;11.90;83.11;101197.25;5011085;28;20029;-72
2022/06/11 03:06:51;;;;;;;6.00;4.50;;;;;;;11.92;82.86;101201.66;5023111;28;20084;-72
2022/06/11 03:09:21;;;;;;;8.18;5.45;;;;;;;11.94;83.10;101199.88;5018597;28;20088;-72
2022/06/11 03:11:46;;;;;;;7.55;6.18;;;;;;;11.96;83.70;101197.22;5018635;28;20058;-71
2022/06/11 03:14:14;;;;;;;7.43;5.03;;;;;;;11.99;83.74;101199.88;5022264;28;20484;-71
2022/06/11 03:16:40;;;;;;;7.13;4.95;;;;;;;12.03;83.45;101207.81;5016504;28;20049;-71
2022/06/11 03:19:07;;;;;;;8.38;5.82;;;;;;;12.10;84.06;101205.13;5020160;28;20029;-71
2022/06/11 03:21:32;;;;;;;7.35;5.47;;;;;;;12.14;83.78;101198.97;5017998;28;20481;-71
2022/06/11 03:23:58;;;;;;;9.38;5.07;;;;;;;12.20;83.32;101207.75;5021782;28;20080;-71
2022/06/11 03:26:24;;;;;;;6.90;4.50;;;;;;;12.24;82.40;101206.00;5018467;28;20108;-72
2022/06/11 03:28:51;;;;;;;5.75;4.35;;;;;;;12.30;82.45;101210.41;5015269;28;20485;-72
2022/06/11 03:31:17;;;;;;;5.95;4.47;;;;;;;12.33;82.05;101207.75;5022476;28;20041;-70
2022/06/11 03:33:42;;;;;;;6.85;4.80;;;;;;;12.35;81.63;101214.81;5024023;28;20041;-70
2022/06/11 03:36:10;;;;;;;7.32;4.47;;;;;;;12.40;81.79;101214.78;5021976;28;20037;-72
2022/06/11 03:38:37;;;;;;;7.32;5.15;;;;;;;12.46;81.32;101214.75;5022521;28;20039;-71
2022/06/11 03:41:04;;;;;;;9.75;6.20;;;;;;;12.49;81.54;101220.91;5024727;28;20511;-71
2022/06/11 03:43:29;;;;;;;7.45;5.80;;;;;;;12.57;81.48;101212.09;5006554;28;20046;-72
2022/06/11 03:45:55;;;;;;;6.53;4.55;;;;;;;12.63;80.81;101220.03;5024106;28;20041;-72
2022/06/11 03:48:20;;;;;;;6.22;4.13;;;;;;;12.65;80.54;101211.19;5023991;28;20117;-71
2022/06/11 03:50:46;;;;;;;5.57;4.20;;;;;;;12.68;80.38;101211.16;5020658;28;20035;-72
2022/06/11 03:53:13;;;;;;;6.93;5.28;;;;;;;12.74;80.52;101217.34;5022575;28;20030;-71
2022/06/11 03:55:40;;;;;;;6.00;4.10;;;;;;;12.84;80.63;101217.28;5018991;28;20030;-71
2022/06/11 03:58:06;;;;;;;7.75;5.22;;;;;;;12.95;80.44;101214.56;5021547;28;20484;-72
2022/06/11 04:03:18;;;;;;;6.22;5.30;;;;;;;13.15;80.83;101217.09;5020035;28;20042;-72
2022/06/11 04:05:45;;;;;;;6.93;5.07;;;;;;;13.26;80.61;101225.00;5020786;28;20369;-72
2022/06/11 04:08:12;;;;;;;9.93;4.85;;;;;;;13.31;80.64;101220.59;5020978;28;20042;-72
2022/06/11 04:10:37;;;;;;;6.70;4.30;;;;;;;13.34;80.83;101224.09;5020343;28;20040;-72
2022/06/11 04:13:05;;;;;;;6.97;5.50;;;;;;;13.43;79.88;101223.16;5020786;28;20034;-71
2022/06/11 04:15:30;;;;;;;7.45;4.97;;;;;;;13.54;80.33;101221.28;5022096;28;20120;-71
2022/06/11 04:17:56;;;;;;;6.35;4.75;;;;;;;13.69;79.90;101222.09;5023214;28;20121;-71
2022/06/11 04:20:21;;;;;;;9.45;5.72;;;;;;;13.83;80.09;101225.50;5021417;28;20041;-71
2022/06/11 04:22:47;;;;;;;6.72;4.60;;;;;;;13.98;79.44;101213.88;5020497;28;20444;-72
2022/06/11 04:25:15;;;;;;;8.73;4.80;;;;;;;14.15;78.87;101216.38;5024183;28;20484;-72
2022/06/11 04:27:41;;;;;;;8.15;5.50;;;;;;;14.23;78.37;101211.88;5021827;28;20038;-71
2022/06/11 04:30:07;;;;;;;8.10;5.85;;;;;;;14.35;78.64;101222.34;5020434;28;20026;-72
2022/06/11 04:32:33;;;;;;;8.48;6.35;;;;;;;14.43;78.16;101211.63;5020246;28;20037;-72
2022/06/11 04:34:58;;;;;;;7.70;6.25;;;;;;;14.51;78.39;101223.03;5019136;28;20397;-73
2022/06/11 04:37:27;;;;;;;10.35;8.00;;;;;;;14.63;77.67;101222.94;5020133;28;20467;-72
2022/06/11 04:39:55;;;;;;;7.55;6.72;;;;;;;14.78;77.26;101221.91;5018359;28;20038;-73
2022/06/11 04:42:22;;;;;;;8.30;7.32;;;;;;;14.89;76.59;101219.97;5022039;28;20033;-73
2022/06/11 04:44:48;;;;;;;9.85;6.95;;;;;;;15.03;76.04;101221.56;5022974;28;20512;-74
2022/06/11 04:47:21;;;;;;;8.00;5.88;;;;;;;15.19;76.03;101224.88;5020159;28;20033;-72
2022/06/11 04:49:47;;;;;;;10.05;5.82;;;;;;;15.26;75.64;101224.78;5018443;28;20038;-72
2022/06/11 04:52:13;;;;;;;7.57;5.10;;;;;;;15.36;75.23;101219.34;5019262;28;20037;-73
2022/06/11 04:54:38;;;;;;;8.13;5.43;;;;;;;15.41;74.92;101222.81;5024516;28;20042;-72
2022/06/11 04:57:04;;;;;;;9.75;5.18;;;;;;;15.45;74.83;101219.19;5023954;28;20115;-74
2022/06/11 04:59:32;;;;;;;6.28;4.80;;;;;;;15.55;73.92;101227.00;5021130;28;20113;-73
2022/06/11 05:01:58;;;;;;;8.98;4.80;;;;;;;15.67;73.39;101223.28;5023427;28;20482;-73
2022/06/11 05:04:23;;;;;;;7.65;4.53;;;;;;;15.76;73.07;101223.16;5018468;28;20037;-73
2022/06/11 05:06:49;;;;;;;8.95;4.85;;;;;;;15.86;72.76;101221.22;5019614;28;20547;-72
2022/06/11 05:09:17;;;;;;;8.80;4.80;;;;;;;15.89;72.72;101225.59;5015739;28;20488;-73
2022/06/11 05:11:43;;;;;;;9.07;4.80;;;;;;;16.00;72.09;101229.81;5015988;28;20030;-73
2022/06/11 05:14:09;;;;;;;8.15;4.68;;;;;;;16.09;71.63;101226.16;5015315;28;20060;-73
2022/06/11 05:16:35;;;;;;;9.45;4.90;;;;;;;16.21;70.99;101227.69;5017526;28;20471;-73
2022/06/11 05:19:02;;;;;;;5.93;4.43;;;;;;;16.32;71.49;101224.81;5021266;28;20496;-73
2022/06/11 05:21:27;;;;;;;7.28;4.85;;;;;;;16.40;70.78;101236.22;5020729;28;20128;-72
2022/06/11 05:23:52;;;;;;;7.93;4.88;;;;;;;16.47;70.53;101240.53;5022828;28;20121;-72
2022/06/11 05:26:25;;;;;;;7.18;4.25;;;;;;;16.59;70.17;101242.97;5014958;28;20033;-72
2022/06/11 05:28:50;;;;;;;7.38;5.22;;;;;;;16.67;69.81;101241.94;5019723;28;20382;-72
2022/06/11 05:31:16;;;;;;;9.40;4.75;;;;;;;16.77;69.19;101246.19;5022912;28;20037;-72
2022/06/11 05:33:42;;;;;;;6.05;4.35;;;;;;;16.88;69.17;101240.66;5017680;28;20523;-72
2022/06/11 05:36:08;;;;;;;6.43;4.47;;;;;;;17.00;69.14;101245.72;5021981;28;20044;-72
2022/06/11 05:38:34;;;;;;;7.28;4.63;;;;;;;17.14;69.45;101245.44;5021627;28;20042;-71
2022/06/11 05:40:59;;;;;;;7.95;4.18;;;;;;;17.30;68.79;101246.84;5018856;28;20057;-74
2022/06/11 05:43:26;;;;;;;7.95;4.05;;;;;;;17.37;68.25;101245.78;5022511;28;20044;-73
2022/06/11 05:45:59;;;;;;;7.97;4.07;;;;;;;17.55;67.67;101240.91;5021545;28;20400;-73
2022/06/11 05:48:32;;;;;;;6.72;3.50;;;;;;;17.70;67.36;101244.09;5020390;28;20145;-72
2022/06/11 05:50:58;;;;;;;6.25;4.07;;;;;;;17.83;67.05;101244.72;5016774;28;20034;-73
2022/06/11 05:53:27;;;;;;;7.95;3.85;;;;;;;17.97;66.28;101236.34;5021011;28;20571;-73
2022/06/11 05:55:53;;;;;;;7.95;4.20;;;;;;;18.08;66.47;101236.97;5022144;28;20049;-74
2022/06/11 05:58:25;;;;;;;5.45;3.50;;;;;;;18.27;65.75;101237.34;5019632;28;20488;-73
2022/06/11 06:00:54;;;;;;;9.27;3.33;;;;;;;18.43;65.52;101244.97;5021520;28;20797;-73
2022/06/11 06:03:20;;;;;;;5.45;3.40;;;;;;;18.56;64.78;101241.03;5021749;28;20034;-74
2022/06/11 06:05:45;;;;;;;6.30;3.47;;;;;;;18.55;63.99;101240.16;5012536;28;20092;-73
2022/06/11 06:08:10;;;;;;;9.05;3.97;;;;;;;18.63;64.08;101247.97;5015434;28;20034;-73
2022/06/11 06:10:36;;;;;;;8.20;3.40;;;;;;;18.74;63.86;101244.97;5013555;28;20038;-73
2022/06/11 06:13:45;;;;;;;6.72;3.53;;;;;;;18.87;63.95;101245.53;5018969;28;20044;-73
2022/06/11 06:15:49;;;;;;;6.72;3.67;;;;;;;18.99;64.03;101239.81;5018305;28;20077;-73
2022/06/11 06:18:15;;;;;;;7.22;3.65;;;;;;;19.08;62.95;101242.22;5020286;28;20042;-73
2022/06/11 06:20:40;;;;;;;6.97;3.20;;;;;;;19.14;63.46;101234.00;5020354;28;20612;-73
2022/06/11 06:23:05;;;;;;;4.53;2.70;;;;;;;19.27;63.12;101238.03;5019881;28;20439;-73
2022/06/11 06:25:31;;;;;;;7.90;3.50;;;;;;;19.42;62.40;101233.16;5021161;28;20448;-73
2022/06/11 06:27:56;;;;;;;10.73;3.00;;;;;;;19.52;62.08;101233.72;5019433;28;20488;-73
2022/06/11 06:30:21;;;;;;;8.23;3.60;;;;;;;19.63;61.51;101235.13;5022929;28;20037;-73
2022/06/11 06:32:47;;;;;;;7.95;3.40;;;;;;;19.74;61.20;101239.28;5019363;28;20088;-73
2022/06/11 06:35:12;;;;;;;6.15;2.60;;;;;;;19.87;60.63;101237.97;5019125;28;20034;-73
2022/06/11 06:37:37;;;;;;;7.35;3.03;;;;;;;20.03;60.71;101241.88;5021013;28;20068;-73
2022/06/11 06:40:04;;;;;;;6.38;2.90;;;;;;;20.20;59.86;101240.41;5021549;28;20055;-73
2022/06/11 06:42:29;;;;;;;7.50;2.80;;;;;;;20.34;58.86;101243.50;5019396;28;20038;-73
2022/06/11 06:44:57;;;;;;;7.25;3.13;;;;;;;20.48;58.35;101241.16;5022711;28;20133;-73
2022/06/11 06:47:22;;;;;;;6.90;2.95;;;;;;;20.47;58.17;101241.25;5019752;28;20038;-73
2022/06/11 06:49:47;;;;;;;8.18;2.80;;;;;;;20.57;56.88;101238.22;5021494;28;20034;-73
2022/06/11 06:52:13;;;;;;;6.65;2.97;;;;;;;20.65;57.00;101240.59;5020240;28;20081;-74
2022/06/11 06:54:38;;;;;;;7.93;2.65;;;;;;;20.68;57.29;101234.25;5018256;28;20030;-74
2022/06/11 06:57:04;;;;;;;7.68;2.83;;;;;;;20.73;57.09;101238.50;5021988;28;20037;-74
2022/06/11 06:59:29;;;;;;;5.75;2.83;;;;;;;20.74;57.09;101234.88;5019216;28;20041;-74
2022/06/11 07:01:55;;;;;;;6.25;2.70;;;;;;;20.89;56.68;101237.94;5021695;28;20045;-74
2022/06/11 07:04:20;;;;;;;6.28;2.65;;;;;;;20.99;56.12;101233.97;5020125;28;20500;-74
2022/06/11 07:06:45;;;;;;;6.35;2.58;;;;;;;21.04;55.60;101239.16;5020478;28;20052;-74
2022/06/11 07:09:11;;;;;;;6.05;2.75;;;;;;;21.17;55.30;101230.59;5024213;28;20120;-74
2022/06/11 07:11:36;;;;;;;6.20;2.63;;;;;;;21.28;55.29;101237.34;5024614;28;20092;-74
2022/06/11 07:14:02;;;;;;;5.03;2.55;;;;;;;21.33;54.94;101238.91;5022984;28;20049;-74
2022/06/11 07:16:34;;;;;;;6.28;2.70;;;;;;;21.42;54.63;101227.81;5025966;28;20044;-74
2022/06/11 07:19:04;;;;;;;8.93;3.17;;;;;;;21.55;54.99;101230.00;5024092;28;20041;-74
2022/06/11 07:21:40;;;;;;;9.60;2.92;;;;;;;21.59;54.19;101228.97;5022437;28;20033;-74
2022/06/11 07:24:11;;;;;;;7.22;2.70;;;;;;;21.71;53.96;101223.06;5020596;28;20663;-74
2022/06/11 07:26:41;;;;;;;6.22;2.80;;;;;;;21.81;54.75;101223.56;5023785;28;20044;-74
2022/06/11 07:29:28;;;;;;;5.93;2.50;;;;;;;21.95;52.99;101217.59;5025761;28;20500;-74
2022/06/11 07:32:01;;;;;;;6.63;3.00;;;;;;;22.03;53.31;101218.13;5024968;28;20033;-74
2022/06/11 07:34:27;;;;;;;5.53;2.42;;;;;;;22.15;53.05;101216.75;5018870;28;20030;-74
2022/06/11 07:36:53;;;;;;;6.65;2.97;;;;;;;22.29;52.52;101220.59;5021462;28;20083;-74
2022/06/11 07:39:19;;;;;;;5.15;2.80;;;;;;;22.38;51.52;101218.47;5024370;28;20056;-74
2022/06/11 07:41:44;;;;;;;9.75;3.00;;;;;;;22.50;50.57;101225.97;5022160;28;20454;-74
2022/06/11 07:44:09;;;;;;;6.97;2.72;;;;;;;22.62;50.77;101216.50;5025599;28;20048;-74
2022/06/11 07:46:35;;;;;;;7.30;2.97;;;;;;;22.71;49.14;101216.91;5022314;28;20038;-74
2022/06/11 07:49:00;;;;;;;8.88;3.22;;;;;;;22.74;47.88;101216.81;5023455;28;20037;-74
2022/06/11 07:51:25;;;;;;;8.45;3.40;;;;;;;22.85;48.69;101213.63;5022334;28;20034;-74
2022/06/11 07:53:51;;;;;;;11.20;4.18;;;;;;;22.97;48.37;101217.56;5023641;28;20040;-74
2022/06/11 07:56:19;;;;;;;7.03;3.15;;;;;;;23.03;48.00;101217.28;5021556;28;20038;-74
2022/06/11 07:58:44;;;;;;;6.50;2.40;;;;;;;23.06;47.85;101211.75;5023932;28;20037;-74
2022/06/11 08:01:09;;;;;;;4.85;1.75;;;;;;;23.13;45.82;101213.22;5021353;28;20412;-74
2022/06/11 08:03:38;;;;;;;5.22;1.80;;;;;;;23.21;46.77;101220.03;5024452;28;20044;-74
2022/06/11 08:06:05;;;;;;;4.60;1.73;;;;;;;23.31;46.06;101218.66;5022476;28;20036;-74
2022/06/11 08:08:31;;;;;;;4.20;1.70;;;;;;;23.48;46.11;101215.16;5022533;28;20042;-74
2022/06/11 08:10:58;;;;;;;6.60;1.50;;;;;;;23.60;46.25;101211.84;5024293;28;20515;-74
2022/06/11 08:13:23;;;;;;;5.57;2.05;;;;;;;23.67;45.54;101212.41;5017956;28;20030;-74
2022/06/11 08:15:49;;;;;;;3.53;1.50;;;;;;;23.71;46.00;101209.50;5023893;28;20033;-74
2022/06/11 08:18:16;;;;;;;4.20;1.35;;;;;;;23.89;44.60;101202.31;5022684;28;20505;-74
2022/06/11 08:20:42;;;;;;;4.05;1.27;;;;;;;23.96;44.02;101203.75;5022428;28;20516;-74
2022/06/11 08:23:08;;;;;;;2.97;1.33;;;;;;;24.04;43.60;101209.59;5023703;28;20068;-74
2022/06/11 08:25:35;;;;;;;3.50;1.40;;;;;;;24.11;42.92;101201.22;5021377;28;20125;-74
2022/06/11 08:28:00;;;;;;;4.47;1.50;;;;;;;24.19;43.57;101199.84;5024360;28;20489;-74
2022/06/11 08:30:30;;;;;;;3.25;1.40;;;;;;;24.21;42.63;101197.97;5022284;28;20121;-74
2022/06/11 08:32:55;;;;;;;3.67;1.27;;;;;;;24.25;43.03;101195.97;5022008;28;20040;-74
2022/06/11 08:35:24;;;;;;;4.80;1.30;;;;;;;24.37;43.14;101194.44;5022063;28;20029;-74
2022/06/11 08:37:50;;;;;;;5.63;1.77;;;;;;;24.51;41.99;101194.59;5021231;28;20042;-74
2022/06/11 08:40:25;;;;;;;5.65;1.15;;;;;;;24.71;42.69;101188.13;5023896;28;20071;-74
2022/06/11 08:43:03;;;;;;;4.15;1.08;;;;;;;24.82;40.47;101187.53;5023050;28;20083;-74
2022/06/11 08:45:38;;;;;;;3.13;1.08;;;;;;;24.88;40.08;101182.66;5019148;28;20518;-74
2022/06/11 08:48:13;;;;;;;3.30;1.17;;;;;;;24.97;38.60;101197.50;5017711;28;20032;-74
2022/06/11 08:50:47;;;;;;;3.45;1.40;;;;;;;24.98;36.75;101196.53;5019106;28;20072;-74
2022/06/11 08:53:14;;;;;;;2.92;0.90;;;;;;;24.93;36.63;101187.81;5021150;28;20516;-74
2022/06/11 08:55:39;;;;;;;4.28;1.25;;;;;;;25.01;37.69;101203.59;5023921;28;20399;-74
2022/06/11 08:58:42;;;;;;;4.72;1.15;;;;;;;25.17;36.87;101188.28;5020813;28;20041;-74
2022/06/11 09:01:29;;;;;;;3.35;1.02;;;;;;;25.28;37.92;101190.38;4971264;28;20496;-74
2022/06/11 09:04:10;;;;;;;3.90;1.00;;;;;;;25.41;35.38;101186.00;5018885;28;20034;-75
2022/06/11 09:06:54;;;;;;;3.73;1.40;;;;;;;25.48;35.77;101186.53;5017951;28;20071;-74
2022/06/11 09:09:26;;;;;;;4.40;1.00;;;;;;;25.66;37.14;101177.34;5020430;28;20493;-74
2022/06/11 09:12:04;;;;;;;3.25;1.02;;;;;;;25.90;36.50;101175.03;5020922;28;20120;-74
2022/06/11 09:15:01;;;;;;;4.90;1.42;;;;;;;26.01;36.38;101179.78;5023788;28;20041;-74
2022/06/11 09:17:44;;;;;;;3.50;0.93;;;;;;;25.94;35.86;101171.19;5016566;28;20060;-75
2022/06/11 09:20:30;;;;;;;4.75;0.98;;;;;;;25.89;35.59;101180.56;5023817;28;20116;-74
2022/06/11 09:23:10;;;;;;;3.92;1.05;;;;;;;26.06;34.55;101183.09;5023062;28;20103;-74
2022/06/11 09:25:53;;;;;;;3.50;1.02;;;;;;;26.07;34.88;101176.72;5020724;28;20125;-74
2022/06/11 09:28:27;;;;;;;3.72;1.10;;;;;;;26.09;34.40;101176.63;5017859;28;20116;-74
2022/06/11 09:31:10;;;;;;;3.53;1.00;;;;;;;26.24;34.06;101175.69;5018873;28;20034;-74
2022/06/11 09:33:50;;;;;;;3.25;0.98;;;;;;;26.52;33.22;101174.00;5020357;28;20034;-74
2022/06/11 09:36:29;;;;;;;5.68;1.13;;;;;;;26.55;33.69;101177.38;5017895;28;20401;-75
2022/06/11 09:39:05;;;;;;;2.80;0.95;;;;;;;26.36;32.49;101174.06;5020220;28;20271;-74
2022/06/11 09:41:56;;;;;;;3.53;0.90;;;;;;;26.22;33.39;101167.66;5018259;28;20033;-74
2022/06/11 09:44:33;;;;;;;2.92;0.90;;;;;;;26.28;34.68;101168.22;5019294;28;20045;-74
2022/06/11 09:47:04;;;;;;;2.22;0.75;;;;;;;26.43;32.73;101170.00;5020037;28;20030;-74
2022/06/11 09:49:57;;;;;;;3.13;0.88;;;;;;;26.54;33.68;101166.63;5020588;28;20041;-74
2022/06/11 09:52:35;;;;;;;2.97;0.73;;;;;;;26.50;32.52;101171.34;5019163;28;20125;-74
2022/06/11 09:55:08;;;;;;;3.15;1.10;;;;;;;26.31;31.87;101165.38;5016742;28;20088;-74
2022/06/11 09:57:39;;;;;;;5.75;0.70;;;;;;;26.14;32.61;101169.97;5021266;28;20103;-74
2022/06/11 10:00:04;;;;;;;4.00;0.90;;;;;;;25.94;32.26;101164.91;5023114;28;20049;-74
2022/06/11 10:03:02;;;;;;;3.03;1.10;;;;;;;25.90;32.14;101161.50;5019134;28;20037;-74
2022/06/11 10:05:43;;;;;;;3.17;0.90;;;;;;;25.90;33.36;101172.31;5016609;28;20041;-74
2022/06/11 10:08:33;;;;;;;2.50;0.87;;;;;;;25.96;33.67;101165.66;5022738;28;20171;-74
2022/06/11 10:10:58;;;;;;;5.70;0.90;;;;;;;26.38;33.93;101169.41;5022399;28;20295;-74
2022/06/11 10:13:39;;;;;;;2.58;0.60;;;;;;;26.60;32.10;101169.84;5020192;28;20037;-74
2022/06/11 10:16:28;;;;;;;5.57;1.10;;;;;;;26.66;30.84;101182.13;5019825;28;20041;-74
2022/06/11 10:18:57;;;;;;;2.97;0.82;;;;;;;26.78;31.20;101164.25;5018126;28;20042;-74
2022/06/11 10:21:25;;;;;;;2.38;0.80;;;;;;;27.16;31.86;101164.44;5016296;28;20401;-74
2022/06/11 10:23:59;;;;;;;2.53;0.82;;;;;;;27.23;31.11;101156.81;5020319;28;20037;-74
2022/06/11 10:26:29;;;;;;;2.83;0.80;;;;;;;27.08;30.02;101164.06;5022866;28;20030;-75
2022/06/11 10:29:07;;;;;;;2.92;0.95;;;;;;;26.92;30.30;101169.63;5016705;28;20053;-74
2022/06/11 10:31:40;;;;;;;1.92;0.70;;;;;;;26.83;31.53;101167.53;5019391;28;20034;-74
2022/06/11 10:34:21;;;;;;;2.13;0.70;;;;;;;26.85;30.51;101171.88;5016592;28;20041;-74
2022/06/11 10:36:47;;;;;;;;;;;;;;;26.95;30.70;101172.13;5019788;28;20041;-74
2022/06/11 10:39:37;;;;;;;1.90;0.73;;;;;;;27.26;30.05;101157.47;5022953;28;19913;-74
2022/06/11 10:42:05;;;;;;;2.17;0.80;;;;;;;27.66;28.59;101162.06;5019384;28;20041;-74
2022/06/11 10:44:35;;;;;;;2.63;0.68;;;;;;;27.79;29.42;101154.81;5024398;28;20044;-74
2022/06/11 10:47:08;;;;;;;2.97;0.80;;;;;;;27.89;29.61;101158.69;5025936;28;20060;-74
2022/06/11 10:49:33;;;;;;;4.10;0.90;;;;;;;27.74;28.98;101156.97;5021272;28;20120;-75
2022/06/11 10:52:05;;;;;;;1.70;0.70;;;;;;;27.85;29.97;101157.16;5023363;28;20461;-74
2022/06/11 10:54:30;;;;;;;;;;;;;;;27.91;29.32;101161.28;5024914;28;20102;-74
2022/06/11 10:57:05;;;;;;;2.75;1.25;;;;;;;28.24;29.20;101147.19;5025846;28;20011;-74
2022/06/11 10:59:45;;;;;;;1.00;0.70;;;;;;;28.76;29.08;101148.06;5020879;28;20044;-74
2022/06/11 11:02:26;;;;;;;2.17;0.70;;;;;;;29.10;27.56;101143.75;5022520;28;20095;-74
2022/06/11 11:05:02;;;;;;;2.30;0.77;;;;;;;29.44;27.04;101149.38;5023251;28;20033;-74
2022/06/11 11:07:45;;;;;;;2.03;0.73;;;;;;;29.60;26.80;101136.31;5019979;28;20404;-74
2022/06/11 11:10:18;;;;;;;1.90;0.80;;;;;;;29.40;28.00;101148.75;5022912;28;20065;-74
2022/06/11 11:12:44;;;;;;;3.15;1.08;;;;;;;29.33;28.61;101143.88;5024254;28;20442;-74
2022/06/11 11:15:09;;;;;;;2.60;1.17;;;;;;;29.22;27.37;101144.69;5023790;28;20037;-74
2022/06/11 11:17:35;;;;;;;2.85;0.98;;;;;;;28.97;28.02;101149.19;5022479;28;20108;-74
2022/06/11 11:20:32;;;;;;;2.47;0.90;;;;;;;28.73;28.46;101149.13;5021290;28;20036;-74
2022/06/11 11:23:05;;;;;;;3.05;0.93;;;;;;;29.00;29.01;101134.50;5018544;28;20084;-74
2022/06/11 11:25:39;;;;;;;2.20;0.90;;;;;;;29.39;27.61;101137.97;5023022;28;20030;-74
2022/06/11 11:28:13;;;;;;;2.63;0.80;;;;;;;29.32;27.35;101125.81;5001597;28;20096;-74
2022/06/11 11:30:39;;;;;;;2.53;0.85;;;;;;;28.97;28.62;101126.59;5022863;28;20030;-74
2022/06/11 11:33:24;;;;;;;1.95;0.80;;;;;;;29.07;28.95;101134.97;5022960;28;20064;-74
2022/06/11 11:36:01;;;;;;;3.10;1.08;;;;;;;29.20;27.58;101131.22;5019372;28;20049;-74
2022/06/11 11:38:27;;;;;;;2.72;0.90;;;;;;;29.31;28.37;101127.69;5022334;28;20034;-74
2022/06/11 11:40:59;;;;;;;2.58;1.10;;;;;;;29.49;27.79;101130.84;5024644;28;20044;-74
2022/06/11 11:43:34;;;;;;;3.15;0.95;;;;;;;29.86;27.35;101123.47;5024474;28;20057;-74
2022/06/11 11:46:06;;;;;;;3.25;1.05;;;;;;;29.90;26.85;101118.66;5018650;28;20100;-74